sensor_id;sensor_type;location;lat;lon;timestamp;P1;durP1;ratioP1;P2;durP2;ratioP2
325;SDS011;150;52.352;14.058;2023-07-02T00:01:12;3.67;;;2.15;;
325;SDS011;150;52.352;14.058;2023-07-02T00:03:42;2.20;;;1.40;;
325;SDS011;150;52.352;14.058;2023-07-02T00:06:17;2.47;;;1.60;;
325;SDS011;150;52.352;14.058;2023-07-02T00:09:10;2.38;;;1.50;;
325;SDS011;150;52.352;14.058;2023-07-02T00:11:48;2.10;;;1.30;;
325;SDS011;150;52.352;14.058;2023-07-02T00:14:40;2.00;;;1.33;;
325;SDS011;150;52.352;14.058;2023-07-02T00:17:10;2.20;;;1.38;;
325;SDS011;150;52.352;14.058;2023-07-02T00:19:54;2.55;;;1.40;;
325;SDS011;150;52.352;14.058;2023-07-02T00:22:33;1.77;;;1.52;;
325;SDS011;150;52.352;14.058;2023-07-02T00:25:04;2.40;;;1.52;;
325;SDS011;150;52.352;14.058;2023-07-02T00:27:32;3.95;;;1.48;;
325;SDS011;150;52.352;14.058;2023-07-02T00:30:23;3.00;;;1.70;;
325;SDS011;150;52.352;14.058;2023-07-02T00:33:07;2.20;;;1.70;;
325;SDS011;150;52.352;14.058;2023-07-02T00:35:40;2.80;;;1.70;;
325;SDS011;150;52.352;14.058;2023-07-02T00:38:14;2.60;;;1.60;;
325;SDS011;150;52.352;14.058;2023-07-02T00:41:07;2.90;;;1.50;;
325;SDS011;150;52.352;14.058;2023-07-02T00:44:04;2.28;;;1.35;;
325;SDS011;150;52.352;14.058;2023-07-02T00:46:45;2.97;;;1.45;;
325;SDS011;150;52.352;14.058;2023-07-02T00:49:42;2.00;;;0.95;;
325;SDS011;150;52.352;14.058;2023-07-02T00:52:32;1.70;;;1.40;;
325;SDS011;150;52.352;14.058;2023-07-02T00:55:06;1.80;;;1.02;;
325;SDS011;150;52.352;14.058;2023-07-02T00:57:52;2.00;;;1.15;;
325;SDS011;150;52.352;14.058;2023-07-02T01:00:31;2.30;;;1.50;;
325;SDS011;150;52.352;14.058;2023-07-02T01:03:29;1.60;;;0.90;;
325;SDS011;150;52.352;14.058;2023-07-02T01:06:02;2.80;;;1.20;;
325;SDS011;150;52.352;14.058;2023-07-02T01:08:34;2.13;;;1.67;;
325;SDS011;150;52.352;14.058;2023-07-02T01:11:16;2.13;;;1.20;;
325;SDS011;150;52.352;14.058;2023-07-02T01:14:15;3.00;;;1.50;;
325;SDS011;150;52.352;14.058;2023-07-02T01:17:11;2.08;;;1.40;;
325;SDS011;150;52.352;14.058;2023-07-02T01:19:57;2.40;;;1.52;;
325;SDS011;150;52.352;14.058;2023-07-02T01:22:32;2.40;;;1.60;;
325;SDS011;150;52.352;14.058;2023-07-02T01:25:15;2.00;;;1.63;;
325;SDS011;150;52.352;14.058;2023-07-02T01:27:55;4.35;;;1.50;;
325;SDS011;150;52.352;14.058;2023-07-02T01:30:33;2.40;;;1.30;;
325;SDS011;150;52.352;14.058;2023-07-02T01:33:19;2.00;;;1.40;;
325;SDS011;150;52.352;14.058;2023-07-02T01:35:52;2.35;;;1.60;;
325;SDS011;150;52.352;14.058;2023-07-02T01:41:55;1.80;;;1.35;;
325;SDS011;150;52.352;14.058;2023-07-02T01:44:49;2.55;;;1.30;;
325;SDS011;150;52.352;14.058;2023-07-02T01:47:30;2.72;;;1.65;;
325;SDS011;150;52.352;14.058;2023-07-02T01:50:16;3.50;;;1.60;;
325;SDS011;150;52.352;14.058;2023-07-02T01:53:03;1.95;;;1.40;;
325;SDS011;150;52.352;14.058;2023-07-02T01:58:29;3.20;;;1.70;;
325;SDS011;150;52.352;14.058;2023-07-02T02:01:07;3.20;;;1.70;;
325;SDS011;150;52.352;14.058;2023-07-02T02:03:39;1.90;;;1.20;;
325;SDS011;150;52.352;14.058;2023-07-02T02:06:09;1.90;;;1.50;;
325;SDS011;150;52.352;14.058;2023-07-02T02:08:41;2.88;;;1.55;;
325;SDS011;150;52.352;14.058;2023-07-02T02:11:08;2.70;;;1.60;;
325;SDS011;150;52.352;14.058;2023-07-02T02:13:36;4.43;;;1.73;;
325;SDS011;150;52.352;14.058;2023-07-02T02:16:03;2.72;;;1.70;;
325;SDS011;150;52.352;14.058;2023-07-02T02:18:30;2.78;;;1.98;;
325;SDS011;150;52.352;14.058;2023-07-02T02:20:56;2.08;;;1.67;;
325;SDS011;150;52.352;14.058;2023-07-02T02:23:23;3.70;;;1.50;;
325;SDS011;150;52.352;14.058;2023-07-02T02:25:51;2.07;;;1.83;;
325;SDS011;150;52.352;14.058;2023-07-02T02:28:17;4.87;;;3.57;;
325;SDS011;150;52.352;14.058;2023-07-02T02:30:44;4.88;;;2.45;;
325;SDS011;150;52.352;14.058;2023-07-02T02:33:11;4.40;;;2.20;;
325;SDS011;150;52.352;14.058;2023-07-02T02:35:44;2.15;;;1.75;;
325;SDS011;150;52.352;14.058;2023-07-02T02:38:11;2.20;;;2.00;;
325;SDS011;150;52.352;14.058;2023-07-02T02:40:41;3.50;;;1.73;;
325;SDS011;150;52.352;14.058;2023-07-02T02:43:10;2.20;;;1.70;;
325;SDS011;150;52.352;14.058;2023-07-02T02:45:42;2.33;;;1.80;;
325;SDS011;150;52.352;14.058;2023-07-02T02:48:11;2.90;;;2.00;;
325;SDS011;150;52.352;14.058;2023-07-02T02:50:41;3.40;;;2.10;;
325;SDS011;150;52.352;14.058;2023-07-02T02:53:08;4.07;;;2.05;;
325;SDS011;150;52.352;14.058;2023-07-02T02:55:38;2.90;;;1.93;;
325;SDS011;150;52.352;14.058;2023-07-02T02:58:37;3.70;;;2.80;;
325;SDS011;150;52.352;14.058;2023-07-02T03:01:06;4.82;;;4.30;;
325;SDS011;150;52.352;14.058;2023-07-02T03:03:38;2.67;;;2.50;;
325;SDS011;150;52.352;14.058;2023-07-02T03:06:28;3.00;;;2.60;;
325;SDS011;150;52.352;14.058;2023-07-02T03:09:14;3.65;;;2.83;;
325;SDS011;150;52.352;14.058;2023-07-02T03:11:47;3.13;;;2.10;;
325;SDS011;150;52.352;14.058;2023-07-02T03:14:30;3.30;;;2.38;;
325;SDS011;150;52.352;14.058;2023-07-02T03:17:06;3.53;;;2.85;;
325;SDS011;150;52.352;14.058;2023-07-02T03:19:56;2.75;;;2.58;;
325;SDS011;150;52.352;14.058;2023-07-02T03:22:23;3.20;;;3.00;;
325;SDS011;150;52.352;14.058;2023-07-02T03:24:53;6.13;;;3.45;;
325;SDS011;150;52.352;14.058;2023-07-02T03:27:33;4.00;;;3.42;;
325;SDS011;150;52.352;14.058;2023-07-02T03:30:18;2.65;;;2.50;;
325;SDS011;150;52.352;14.058;2023-07-02T03:32:59;3.55;;;2.90;;
325;SDS011;150;52.352;14.058;2023-07-02T03:35:31;4.50;;;2.60;;
325;SDS011;150;52.352;14.058;2023-07-02T03:38:03;6.60;;;3.03;;
325;SDS011;150;52.352;14.058;2023-07-02T03:40:47;4.30;;;3.28;;
325;SDS011;150;52.352;14.058;2023-07-02T03:43:41;2.95;;;2.80;;
325;SDS011;150;52.352;14.058;2023-07-02T03:46:20;2.80;;;2.22;;
325;SDS011;150;52.352;14.058;2023-07-02T03:48:48;4.15;;;2.83;;
325;SDS011;150;52.352;14.058;2023-07-02T03:51:20;2.95;;;2.38;;
325;SDS011;150;52.352;14.058;2023-07-02T03:53:55;3.60;;;2.50;;
325;SDS011;150;52.352;14.058;2023-07-02T03:56:29;3.40;;;2.30;;
325;SDS011;150;52.352;14.058;2023-07-02T03:59:16;3.33;;;2.60;;
325;SDS011;150;52.352;14.058;2023-07-02T04:05:07;3.58;;;2.22;;
325;SDS011;150;52.352;14.058;2023-07-02T04:07:49;3.50;;;2.50;;
325;SDS011;150;52.352;14.058;2023-07-02T04:10:46;3.78;;;2.20;;
325;SDS011;150;52.352;14.058;2023-07-02T04:13:27;7.15;;;1.88;;
325;SDS011;150;52.352;14.058;2023-07-02T04:16:02;5.25;;;2.40;;
325;SDS011;150;52.352;14.058;2023-07-02T04:18:49;3.00;;;2.03;;
325;SDS011;150;52.352;14.058;2023-07-02T04:21:23;3.60;;;2.55;;
325;SDS011;150;52.352;14.058;2023-07-02T04:24:15;2.70;;;2.00;;
325;SDS011;150;52.352;14.058;2023-07-02T04:26:43;3.17;;;2.28;;
325;SDS011;150;52.352;14.058;2023-07-02T04:29:12;2.40;;;1.90;;
325;SDS011;150;52.352;14.058;2023-07-02T04:31:42;2.95;;;2.20;;
325;SDS011;150;52.352;14.058;2023-07-02T04:34:32;2.40;;;2.20;;
325;SDS011;150;52.352;14.058;2023-07-02T04:37:24;2.60;;;2.00;;
325;SDS011;150;52.352;14.058;2023-07-02T04:39:58;4.83;;;2.50;;
325;SDS011;150;52.352;14.058;2023-07-02T04:42:39;2.70;;;2.50;;
325;SDS011;150;52.352;14.058;2023-07-02T04:45:20;3.33;;;2.33;;
325;SDS011;150;52.352;14.058;2023-07-02T04:47:47;2.65;;;2.35;;
325;SDS011;150;52.352;14.058;2023-07-02T04:50:27;3.08;;;2.30;;
325;SDS011;150;52.352;14.058;2023-07-02T04:55:54;3.42;;;2.20;;
325;SDS011;150;52.352;14.058;2023-07-02T04:58:37;4.80;;;2.70;;
325;SDS011;150;52.352;14.058;2023-07-02T05:01:17;2.50;;;2.03;;
325;SDS011;150;52.352;14.058;2023-07-02T05:04:09;3.30;;;2.30;;
325;SDS011;150;52.352;14.058;2023-07-02T05:06:48;2.60;;;2.10;;
325;SDS011;150;52.352;14.058;2023-07-02T05:09:22;2.60;;;2.05;;
325;SDS011;150;52.352;14.058;2023-07-02T05:11:49;4.07;;;2.50;;
325;SDS011;150;52.352;14.058;2023-07-02T05:14:15;3.00;;;1.90;;
325;SDS011;150;52.352;14.058;2023-07-02T05:16:42;2.60;;;1.95;;
325;SDS011;150;52.352;14.058;2023-07-02T05:19:09;3.83;;;2.08;;
325;SDS011;150;52.352;14.058;2023-07-02T05:21:36;4.50;;;1.92;;
325;SDS011;150;52.352;14.058;2023-07-02T05:24:03;4.32;;;2.10;;
325;SDS011;150;52.352;14.058;2023-07-02T05:26:32;4.88;;;1.92;;
325;SDS011;150;52.352;14.058;2023-07-02T05:28:59;2.88;;;2.13;;
325;SDS011;150;52.352;14.058;2023-07-02T05:31:26;2.58;;;2.13;;
325;SDS011;150;52.352;14.058;2023-07-02T05:33:52;4.63;;;2.03;;
325;SDS011;150;52.352;14.058;2023-07-02T05:36:19;3.28;;;2.30;;
325;SDS011;150;52.352;14.058;2023-07-02T05:38:46;3.20;;;2.00;;
325;SDS011;150;52.352;14.058;2023-07-02T05:41:17;2.42;;;1.77;;
325;SDS011;150;52.352;14.058;2023-07-02T05:43:45;3.05;;;2.03;;
325;SDS011;150;52.352;14.058;2023-07-02T05:46:12;2.13;;;1.50;;
325;SDS011;150;52.352;14.058;2023-07-02T05:48:39;4.78;;;1.75;;
325;SDS011;150;52.352;14.058;2023-07-02T05:51:06;1.90;;;1.50;;
325;SDS011;150;52.352;14.058;2023-07-02T05:53:33;2.40;;;1.50;;
325;SDS011;150;52.352;14.058;2023-07-02T05:56:00;3.40;;;1.90;;
325;SDS011;150;52.352;14.058;2023-07-02T05:58:27;3.28;;;2.00;;
325;SDS011;150;52.352;14.058;2023-07-02T06:00:58;4.30;;;2.00;;
325;SDS011;150;52.352;14.058;2023-07-02T06:03:26;2.63;;;1.70;;
325;SDS011;150;52.352;14.058;2023-07-02T06:05:52;2.70;;;1.98;;
325;SDS011;150;52.352;14.058;2023-07-02T06:08:19;2.65;;;2.10;;
325;SDS011;150;52.352;14.058;2023-07-02T06:10:46;3.20;;;1.90;;
325;SDS011;150;52.352;14.058;2023-07-02T06:13:13;2.97;;;1.70;;
325;SDS011;150;52.352;14.058;2023-07-02T06:15:40;2.20;;;1.45;;
325;SDS011;150;52.352;14.058;2023-07-02T06:18:08;2.10;;;1.73;;
325;SDS011;150;52.352;14.058;2023-07-02T06:20:38;2.83;;;1.77;;
325;SDS011;150;52.352;14.058;2023-07-02T06:23:05;3.60;;;1.80;;
325;SDS011;150;52.352;14.058;2023-07-02T06:25:33;2.90;;;1.80;;
325;SDS011;150;52.352;14.058;2023-07-02T06:28:00;2.40;;;1.70;;
325;SDS011;150;52.352;14.058;2023-07-02T06:30:29;2.92;;;1.80;;
325;SDS011;150;52.352;14.058;2023-07-02T06:32:59;2.20;;;1.60;;
325;SDS011;150;52.352;14.058;2023-07-02T06:35:28;3.28;;;2.08;;
325;SDS011;150;52.352;14.058;2023-07-02T06:37:56;3.40;;;1.73;;
325;SDS011;150;52.352;14.058;2023-07-02T06:40:22;3.75;;;1.90;;
325;SDS011;150;52.352;14.058;2023-07-02T06:42:52;4.10;;;2.00;;
325;SDS011;150;52.352;14.058;2023-07-02T06:45:19;2.58;;;1.67;;
325;SDS011;150;52.352;14.058;2023-07-02T06:47:45;3.35;;;2.13;;
325;SDS011;150;52.352;14.058;2023-07-02T06:50:12;3.05;;;2.05;;
325;SDS011;150;52.352;14.058;2023-07-02T06:52:40;3.17;;;1.70;;
325;SDS011;150;52.352;14.058;2023-07-02T06:55:07;2.53;;;1.90;;
325;SDS011;150;52.352;14.058;2023-07-02T06:57:34;2.75;;;1.70;;
325;SDS011;150;52.352;14.058;2023-07-02T07:00:01;3.38;;;2.00;;
325;SDS011;150;52.352;14.058;2023-07-02T07:02:28;2.72;;;2.00;;
325;SDS011;150;52.352;14.058;2023-07-02T07:04:55;4.03;;;1.90;;
325;SDS011;150;52.352;14.058;2023-07-02T07:07:21;4.10;;;1.93;;
325;SDS011;150;52.352;14.058;2023-07-02T07:09:49;3.20;;;1.70;;
325;SDS011;150;52.352;14.058;2023-07-02T07:12:16;3.97;;;2.30;;
325;SDS011;150;52.352;14.058;2023-07-02T07:14:43;2.80;;;2.15;;
325;SDS011;150;52.352;14.058;2023-07-02T07:17:09;4.25;;;1.65;;
325;SDS011;150;52.352;14.058;2023-07-02T07:19:36;3.10;;;1.92;;
325;SDS011;150;52.352;14.058;2023-07-02T07:22:03;3.03;;;2.05;;
325;SDS011;150;52.352;14.058;2023-07-02T07:24:30;4.70;;;1.80;;
325;SDS011;150;52.352;14.058;2023-07-02T07:26:58;3.40;;;1.67;;
325;SDS011;150;52.352;14.058;2023-07-02T07:29:24;4.07;;;1.80;;
325;SDS011;150;52.352;14.058;2023-07-02T07:31:51;5.10;;;2.07;;
325;SDS011;150;52.352;14.058;2023-07-02T07:34:17;4.55;;;2.30;;
325;SDS011;150;52.352;14.058;2023-07-02T07:36:44;3.47;;;2.58;;
325;SDS011;150;52.352;14.058;2023-07-02T07:39:11;3.60;;;2.10;;
325;SDS011;150;52.352;14.058;2023-07-02T07:41:37;3.00;;;1.55;;
325;SDS011;150;52.352;14.058;2023-07-02T07:44:05;4.88;;;2.40;;
325;SDS011;150;52.352;14.058;2023-07-02T07:46:32;6.65;;;2.00;;
325;SDS011;150;52.352;14.058;2023-07-02T07:48:59;2.30;;;1.70;;
325;SDS011;150;52.352;14.058;2023-07-02T07:51:25;4.20;;;2.03;;
325;SDS011;150;52.352;14.058;2023-07-02T07:53:52;3.03;;;1.80;;
325;SDS011;150;52.352;14.058;2023-07-02T07:56:19;3.38;;;2.13;;
325;SDS011;150;52.352;14.058;2023-07-02T07:58:45;5.20;;;2.00;;
325;SDS011;150;52.352;14.058;2023-07-02T08:01:13;3.67;;;2.45;;
325;SDS011;150;52.352;14.058;2023-07-02T08:03:40;4.40;;;1.85;;
325;SDS011;150;52.352;14.058;2023-07-02T08:06:07;5.13;;;2.20;;
325;SDS011;150;52.352;14.058;2023-07-02T08:08:36;5.40;;;2.55;;
325;SDS011;150;52.352;14.058;2023-07-02T08:11:04;5.38;;;2.40;;
325;SDS011;150;52.352;14.058;2023-07-02T08:13:31;4.10;;;2.10;;
325;SDS011;150;52.352;14.058;2023-07-02T08:15:57;3.72;;;2.80;;
325;SDS011;150;52.352;14.058;2023-07-02T08:18:25;4.60;;;1.80;;
325;SDS011;150;52.352;14.058;2023-07-02T08:20:52;3.35;;;2.05;;
325;SDS011;150;52.352;14.058;2023-07-02T08:23:19;3.42;;;1.80;;
325;SDS011;150;52.352;14.058;2023-07-02T08:25:45;3.50;;;2.05;;
325;SDS011;150;52.352;14.058;2023-07-02T08:28:12;6.72;;;6.18;;
325;SDS011;150;52.352;14.058;2023-07-02T08:30:39;5.25;;;2.90;;
325;SDS011;150;52.352;14.058;2023-07-02T08:33:05;6.85;;;2.50;;
325;SDS011;150;52.352;14.058;2023-07-02T08:35:33;4.40;;;2.38;;
325;SDS011;150;52.352;14.058;2023-07-02T08:38:00;5.78;;;2.95;;
325;SDS011;150;52.352;14.058;2023-07-02T08:40:27;4.00;;;2.63;;
325;SDS011;150;52.352;14.058;2023-07-02T08:42:53;3.80;;;2.25;;
325;SDS011;150;52.352;14.058;2023-07-02T08:45:22;2.60;;;1.50;;
325;SDS011;150;52.352;14.058;2023-07-02T08:47:49;4.10;;;1.63;;
325;SDS011;150;52.352;14.058;2023-07-02T08:50:18;3.10;;;1.73;;
325;SDS011;150;52.352;14.058;2023-07-02T08:52:46;2.42;;;1.83;;
325;SDS011;150;52.352;14.058;2023-07-02T08:55:13;7.45;;;4.07;;
325;SDS011;150;52.352;14.058;2023-07-02T08:57:40;2.70;;;1.50;;
325;SDS011;150;52.352;14.058;2023-07-02T09:00:08;3.10;;;2.13;;
325;SDS011;150;52.352;14.058;2023-07-02T09:02:36;3.40;;;2.50;;
325;SDS011;150;52.352;14.058;2023-07-02T09:05:03;4.43;;;2.03;;
325;SDS011;150;52.352;14.058;2023-07-02T09:07:31;7.38;;;2.55;;
325;SDS011;150;52.352;14.058;2023-07-02T09:09:59;3.78;;;2.08;;
325;SDS011;150;52.352;14.058;2023-07-02T09:12:25;3.20;;;2.20;;
325;SDS011;150;52.352;14.058;2023-07-02T09:14:54;5.07;;;2.22;;
325;SDS011;150;52.352;14.058;2023-07-02T09:17:26;3.50;;;1.90;;
325;SDS011;150;52.352;14.058;2023-07-02T09:19:54;3.15;;;1.92;;
325;SDS011;150;52.352;14.058;2023-07-02T09:22:21;3.28;;;2.03;;
325;SDS011;150;52.352;14.058;2023-07-02T09:24:51;4.57;;;2.40;;
325;SDS011;150;52.352;14.058;2023-07-02T09:27:20;6.32;;;2.00;;
325;SDS011;150;52.352;14.058;2023-07-02T09:29:51;3.22;;;2.20;;
325;SDS011;150;52.352;14.058;2023-07-02T09:32:23;5.07;;;2.25;;
325;SDS011;150;52.352;14.058;2023-07-02T09:34:51;4.20;;;2.40;;
325;SDS011;150;52.352;14.058;2023-07-02T09:37:20;6.50;;;2.90;;
325;SDS011;150;52.352;14.058;2023-07-02T09:39:48;3.70;;;2.40;;
325;SDS011;150;52.352;14.058;2023-07-02T09:42:16;3.90;;;2.35;;
325;SDS011;150;52.352;14.058;2023-07-02T09:44:46;3.40;;;2.50;;
325;SDS011;150;52.352;14.058;2023-07-02T09:47:14;3.42;;;2.60;;
325;SDS011;150;52.352;14.058;2023-07-02T09:49:53;3.08;;;2.00;;
325;SDS011;150;52.352;14.058;2023-07-02T09:52:21;5.05;;;3.00;;
325;SDS011;150;52.352;14.058;2023-07-02T09:54:48;4.80;;;2.60;;
325;SDS011;150;52.352;14.058;2023-07-02T09:57:15;6.03;;;3.33;;
325;SDS011;150;52.352;14.058;2023-07-02T09:59:42;5.07;;;2.72;;
325;SDS011;150;52.352;14.058;2023-07-02T10:02:11;5.70;;;3.40;;
325;SDS011;150;52.352;14.058;2023-07-02T10:04:41;4.40;;;2.30;;
325;SDS011;150;52.352;14.058;2023-07-02T10:07:08;5.68;;;2.80;;
325;SDS011;150;52.352;14.058;2023-07-02T10:09:36;4.50;;;3.00;;
325;SDS011;150;52.352;14.058;2023-07-02T10:12:20;6.20;;;2.90;;
325;SDS011;150;52.352;14.058;2023-07-02T10:14:51;5.18;;;2.90;;
325;SDS011;150;52.352;14.058;2023-07-02T10:17:24;4.45;;;2.80;;
325;SDS011;150;52.352;14.058;2023-07-02T10:20:02;4.77;;;3.33;;
325;SDS011;150;52.352;14.058;2023-07-02T10:22:48;5.13;;;2.60;;
325;SDS011;150;52.352;14.058;2023-07-02T10:25:26;4.75;;;2.53;;
325;SDS011;150;52.352;14.058;2023-07-02T10:28:01;4.10;;;2.85;;
325;SDS011;150;52.352;14.058;2023-07-02T10:30:40;7.57;;;3.35;;
325;SDS011;150;52.352;14.058;2023-07-02T10:33:14;5.60;;;2.70;;
325;SDS011;150;52.352;14.058;2023-07-02T10:35:45;3.33;;;2.58;;
325;SDS011;150;52.352;14.058;2023-07-02T10:38:14;4.65;;;3.83;;
325;SDS011;150;52.352;14.058;2023-07-02T10:40:41;6.20;;;3.90;;
325;SDS011;150;52.352;14.058;2023-07-02T10:43:08;6.00;;;3.10;;
325;SDS011;150;52.352;14.058;2023-07-02T10:45:35;3.57;;;2.40;;
325;SDS011;150;52.352;14.058;2023-07-02T10:48:02;4.20;;;3.03;;
325;SDS011;150;52.352;14.058;2023-07-02T10:50:31;5.97;;;3.08;;
325;SDS011;150;52.352;14.058;2023-07-02T10:52:58;5.70;;;2.80;;
325;SDS011;150;52.352;14.058;2023-07-02T10:55:25;5.93;;;4.22;;
325;SDS011;150;52.352;14.058;2023-07-02T10:58:02;9.38;;;4.35;;
325;SDS011;150;52.352;14.058;2023-07-02T11:00:29;3.85;;;2.70;;
325;SDS011;150;52.352;14.058;2023-07-02T11:02:56;5.50;;;3.10;;
325;SDS011;150;52.352;14.058;2023-07-02T11:05:23;3.80;;;3.00;;
325;SDS011;150;52.352;14.058;2023-07-02T11:07:51;5.80;;;2.42;;
325;SDS011;150;52.352;14.058;2023-07-02T11:10:22;3.72;;;2.72;;
325;SDS011;150;52.352;14.058;2023-07-02T11:12:49;5.45;;;3.15;;
325;SDS011;150;52.352;14.058;2023-07-02T11:15:16;5.60;;;3.25;;
325;SDS011;150;52.352;14.058;2023-07-02T11:17:43;6.40;;;3.70;;
325;SDS011;150;52.352;14.058;2023-07-02T11:20:11;7.07;;;3.60;;
325;SDS011;150;52.352;14.058;2023-07-02T11:22:39;5.35;;;3.00;;
325;SDS011;150;52.352;14.058;2023-07-02T11:28:01;8.07;;;3.30;;
325;SDS011;150;52.352;14.058;2023-07-02T11:30:28;6.00;;;3.33;;
325;SDS011;150;52.352;14.058;2023-07-02T11:32:55;5.07;;;3.47;;
325;SDS011;150;52.352;14.058;2023-07-02T11:35:33;6.37;;;4.00;;
325;SDS011;150;52.352;14.058;2023-07-02T11:38:01;5.45;;;3.83;;
325;SDS011;150;52.352;14.058;2023-07-02T11:40:29;7.40;;;3.80;;
325;SDS011;150;52.352;14.058;2023-07-02T11:42:55;7.20;;;3.70;;
325;SDS011;150;52.352;14.058;2023-07-02T11:45:22;6.88;;;3.38;;
325;SDS011;150;52.352;14.058;2023-07-02T11:47:49;7.60;;;3.67;;
325;SDS011;150;52.352;14.058;2023-07-02T11:50:15;5.15;;;3.60;;
325;SDS011;150;52.352;14.058;2023-07-02T11:52:42;6.82;;;3.42;;
325;SDS011;150;52.352;14.058;2023-07-02T11:55:09;7.38;;;3.88;;
325;SDS011;150;52.352;14.058;2023-07-02T11:57:36;8.05;;;3.80;;
325;SDS011;150;52.352;14.058;2023-07-02T12:00:04;5.40;;;3.60;;
325;SDS011;150;52.352;14.058;2023-07-02T12:02:31;5.25;;;3.50;;
325;SDS011;150;52.352;14.058;2023-07-02T12:04:58;6.82;;;3.78;;
325;SDS011;150;52.352;14.058;2023-07-02T12:07:24;8.27;;;4.10;;
325;SDS011;150;52.352;14.058;2023-07-02T12:09:51;8.80;;;4.25;;
325;SDS011;150;52.352;14.058;2023-07-02T12:12:18;6.75;;;3.92;;
325;SDS011;150;52.352;14.058;2023-07-02T12:14:46;9.23;;;4.88;;
325;SDS011;150;52.352;14.058;2023-07-02T12:17:13;8.77;;;4.38;;
325;SDS011;150;52.352;14.058;2023-07-02T12:19:39;7.88;;;3.47;;
325;SDS011;150;52.352;14.058;2023-07-02T12:22:06;7.22;;;3.40;;
325;SDS011;150;52.352;14.058;2023-07-02T12:24:33;7.05;;;4.00;;
325;SDS011;150;52.352;14.058;2023-07-02T12:27:00;9.30;;;3.60;;
325;SDS011;150;52.352;14.058;2023-07-02T12:29:26;8.40;;;3.60;;
325;SDS011;150;52.352;14.058;2023-07-02T12:31:54;4.90;;;3.10;;
325;SDS011;150;52.352;14.058;2023-07-02T12:34:21;6.20;;;3.97;;
325;SDS011;150;52.352;14.058;2023-07-02T12:36:47;5.10;;;3.20;;
325;SDS011;150;52.352;14.058;2023-07-02T12:39:14;7.95;;;3.80;;
325;SDS011;150;52.352;14.058;2023-07-02T12:41:41;7.82;;;3.63;;
325;SDS011;150;52.352;14.058;2023-07-02T12:44:07;6.78;;;3.63;;
325;SDS011;150;52.352;14.058;2023-07-02T12:46:34;11.73;;;4.13;;
325;SDS011;150;52.352;14.058;2023-07-02T12:49:02;5.18;;;2.80;;
325;SDS011;150;52.352;14.058;2023-07-02T12:51:28;4.90;;;3.63;;
325;SDS011;150;52.352;14.058;2023-07-02T12:53:55;6.80;;;4.25;;
325;SDS011;150;52.352;14.058;2023-07-02T12:56:22;7.20;;;3.80;;
325;SDS011;150;52.352;14.058;2023-07-02T12:58:48;10.10;;;3.63;;
325;SDS011;150;52.352;14.058;2023-07-02T13:01:17;8.13;;;3.65;;
325;SDS011;150;52.352;14.058;2023-07-02T13:03:44;8.63;;;4.38;;
325;SDS011;150;52.352;14.058;2023-07-02T13:06:13;8.07;;;4.32;;
325;SDS011;150;52.352;14.058;2023-07-02T13:08:40;7.90;;;3.83;;
325;SDS011;150;52.352;14.058;2023-07-02T13:11:07;6.28;;;3.65;;
325;SDS011;150;52.352;14.058;2023-07-02T13:13:34;7.85;;;4.03;;
325;SDS011;150;52.352;14.058;2023-07-02T13:16:02;4.88;;;3.13;;
325;SDS011;150;52.352;14.058;2023-07-02T13:18:28;9.18;;;4.55;;
325;SDS011;150;52.352;14.058;2023-07-02T13:20:55;6.18;;;3.90;;
325;SDS011;150;52.352;14.058;2023-07-02T13:23:23;6.18;;;3.58;;
325;SDS011;150;52.352;14.058;2023-07-02T13:25:50;9.15;;;4.35;;
325;SDS011;150;52.352;14.058;2023-07-02T13:28:16;7.00;;;4.32;;
325;SDS011;150;52.352;14.058;2023-07-02T13:30:46;6.53;;;3.38;;
325;SDS011;150;52.352;14.058;2023-07-02T13:33:12;6.78;;;3.60;;
325;SDS011;150;52.352;14.058;2023-07-02T13:35:39;5.50;;;3.27;;
325;SDS011;150;52.352;14.058;2023-07-02T13:38:06;8.52;;;4.10;;
325;SDS011;150;52.352;14.058;2023-07-02T13:40:34;8.38;;;3.95;;
325;SDS011;150;52.352;14.058;2023-07-02T13:43:01;8.82;;;3.60;;
325;SDS011;150;52.352;14.058;2023-07-02T13:45:33;8.50;;;4.97;;
325;SDS011;150;52.352;14.058;2023-07-02T13:48:04;6.13;;;3.88;;
325;SDS011;150;52.352;14.058;2023-07-02T13:50:31;7.60;;;3.80;;
325;SDS011;150;52.352;14.058;2023-07-02T13:52:58;8.63;;;3.83;;
325;SDS011;150;52.352;14.058;2023-07-02T13:55:25;6.88;;;4.10;;
325;SDS011;150;52.352;14.058;2023-07-02T13:57:54;6.57;;;3.72;;
325;SDS011;150;52.352;14.058;2023-07-02T14:00:23;8.63;;;4.00;;
325;SDS011;150;52.352;14.058;2023-07-02T14:02:50;7.17;;;3.73;;
325;SDS011;150;52.352;14.058;2023-07-02T14:05:17;9.77;;;4.68;;
325;SDS011;150;52.352;14.058;2023-07-02T14:07:43;6.15;;;4.22;;
325;SDS011;150;52.352;14.058;2023-07-02T14:10:11;7.87;;;4.03;;
325;SDS011;150;52.352;14.058;2023-07-02T14:12:38;8.20;;;3.72;;
325;SDS011;150;52.352;14.058;2023-07-02T14:15:05;5.70;;;3.38;;
325;SDS011;150;52.352;14.058;2023-07-02T14:17:34;6.83;;;3.40;;
325;SDS011;150;52.352;14.058;2023-07-02T14:20:01;7.75;;;3.95;;
325;SDS011;150;52.352;14.058;2023-07-02T14:22:28;6.30;;;3.88;;
325;SDS011;150;52.352;14.058;2023-07-02T14:24:55;7.70;;;3.78;;
325;SDS011;150;52.352;14.058;2023-07-02T14:27:21;5.13;;;3.55;;
325;SDS011;150;52.352;14.058;2023-07-02T14:29:48;5.57;;;3.42;;
325;SDS011;150;52.352;14.058;2023-07-02T14:32:15;7.20;;;3.90;;
325;SDS011;150;52.352;14.058;2023-07-02T14:34:43;7.50;;;3.85;;
325;SDS011;150;52.352;14.058;2023-07-02T14:37:10;8.02;;;3.47;;
325;SDS011;150;52.352;14.058;2023-07-02T14:39:36;7.37;;;4.07;;
325;SDS011;150;52.352;14.058;2023-07-02T14:42:04;7.10;;;3.42;;
325;SDS011;150;52.352;14.058;2023-07-02T14:44:31;10.65;;;3.90;;
325;SDS011;150;52.352;14.058;2023-07-02T14:46:58;9.82;;;4.00;;
325;SDS011;150;52.352;14.058;2023-07-02T14:49:25;8.10;;;3.87;;
325;SDS011;150;52.352;14.058;2023-07-02T14:51:53;6.85;;;3.30;;
325;SDS011;150;52.352;14.058;2023-07-02T14:54:21;9.75;;;4.20;;
325;SDS011;150;52.352;14.058;2023-07-02T14:56:48;7.43;;;4.07;;
325;SDS011;150;52.352;14.058;2023-07-02T14:59:14;6.45;;;3.85;;
325;SDS011;150;52.352;14.058;2023-07-02T15:01:41;6.93;;;3.45;;
325;SDS011;150;52.352;14.058;2023-07-02T15:04:07;10.02;;;3.72;;
325;SDS011;150;52.352;14.058;2023-07-02T15:06:34;6.80;;;4.18;;
325;SDS011;150;52.352;14.058;2023-07-02T15:09:02;5.53;;;3.60;;
325;SDS011;150;52.352;14.058;2023-07-02T15:11:29;10.13;;;3.88;;
325;SDS011;150;52.352;14.058;2023-07-02T15:13:56;7.03;;;3.55;;
325;SDS011;150;52.352;14.058;2023-07-02T15:16:24;7.95;;;3.40;;
325;SDS011;150;52.352;14.058;2023-07-02T15:18:51;6.40;;;4.00;;
325;SDS011;150;52.352;14.058;2023-07-02T15:21:18;6.28;;;3.90;;
325;SDS011;150;52.352;14.058;2023-07-02T15:23:45;6.15;;;3.25;;
325;SDS011;150;52.352;14.058;2023-07-02T15:26:14;7.45;;;4.43;;
325;SDS011;150;52.352;14.058;2023-07-02T15:28:41;8.45;;;4.75;;
325;SDS011;150;52.352;14.058;2023-07-02T15:31:09;11.90;;;5.85;;
325;SDS011;150;52.352;14.058;2023-07-02T15:33:37;10.40;;;4.07;;
325;SDS011;150;52.352;14.058;2023-07-02T15:36:04;7.53;;;3.50;;
325;SDS011;150;52.352;14.058;2023-07-02T15:38:34;8.52;;;4.22;;
325;SDS011;150;52.352;14.058;2023-07-02T15:41:05;7.00;;;3.40;;
325;SDS011;150;52.352;14.058;2023-07-02T15:43:35;8.30;;;4.50;;
325;SDS011;150;52.352;14.058;2023-07-02T15:46:02;8.23;;;3.70;;
325;SDS011;150;52.352;14.058;2023-07-02T15:48:29;8.10;;;4.53;;
325;SDS011;150;52.352;14.058;2023-07-02T15:50:56;8.43;;;3.80;;
325;SDS011;150;52.352;14.058;2023-07-02T15:53:23;7.13;;;3.67;;
325;SDS011;150;52.352;14.058;2023-07-02T15:55:53;7.32;;;3.55;;
325;SDS011;150;52.352;14.058;2023-07-02T15:58:21;8.00;;;3.63;;
325;SDS011;150;52.352;14.058;2023-07-02T16:00:49;5.70;;;3.33;;
325;SDS011;150;52.352;14.058;2023-07-02T16:03:15;4.43;;;2.65;;
325;SDS011;150;52.352;14.058;2023-07-02T16:05:42;6.10;;;3.00;;
325;SDS011;150;52.352;14.058;2023-07-02T16:08:09;7.15;;;3.85;;